.
WxDataArchive / Data Records for 2014-06-13
2014-06-12 June 2014 2014-06-14

Data Records for Friday, 13 June 2014

Time	Temp	Chill	HIndex	Humid	Dewpt	 Wind 	HiWind	WindDir	Rain 	Barom
-----	----	-----	------	-----	-----	------	------	-------	-----	-----
00:00	73.0	73.0	73.0	69	62.2	1	3	270	0.00	29.768 
00:05	73.0	73.0	73.0	68	61.8	2	5	270	0.00	29.768 
00:10	72.8	72.8	72.8	69	62.0	2	4	270	0.00	29.768 
00:15	72.7	72.7	72.7	68	61.5	2	4	270	0.00	29.769 
00:20	72.5	72.5	72.5	67	60.9	2	4	270	0.00	29.769 
00:25	72.3	72.3	72.3	67	60.7	2	4	270	0.00	29.769 
00:30	72.3	72.3	72.3	68	61.1	1	4	270	0.00	29.777 
00:35	72.1	72.1	72.1	68	60.9	1	3	270	0.00	29.777 
00:40	71.8	71.8	71.8	69	61.1	0	2	270	0.00	29.777 
00:45	71.6	71.6	71.6	70	61.3	0	2	270	0.00	29.777 
00:50	71.5	71.5	71.5	71	61.6	0	2	270	0.00	29.777 
00:55	71.1	71.1	71.1	71	61.2	0	2	270	0.00	29.777 
01:00	70.9	70.9	70.9	71	61.0	1	3	270	0.00	29.780 
01:05	70.9	70.9	70.9	71	61.0	1	3	270	0.00	29.780 
01:10	70.8	70.8	70.8	71	60.9	1	3	270	0.00	29.780 
01:15	70.6	70.6	70.6	71	60.7	1	3	270	0.00	29.775 
01:20	70.6	70.6	70.6	70	60.3	2	3	270	0.00	29.775 
01:25	70.4	70.4	70.4	70	60.1	2	4	270	0.00	29.775 
01:30	70.4	70.4	70.4	70	60.1	2	3	270	0.00	29.776 
01:35	70.3	70.3	70.3	70	60.0	2	4	270	0.00	29.776 
01:40	70.3	70.3	70.3	70	60.0	2	5	270	0.00	29.776 
01:45	70.1	70.1	70.1	70	59.8	2	5	270	0.00	29.777 
01:50	70.1	70.1	70.1	69	59.4	2	4	270	0.00	29.777 
01:55	69.9	69.9	69.9	69	59.3	1	4	292	0.00	29.777 
02:00	69.9	69.9	69.9	69	59.3	1	4	292	0.00	29.776 
02:05	69.8	69.8	69.8	69	59.2	2	4	292	0.00	29.776 
02:10	69.8	69.8	69.8	69	59.2	1	3	292	0.00	29.776 
02:15	69.6	69.6	69.6	69	59.0	2	5	292	0.00	29.774 
02:20	69.6	69.6	69.6	69	59.0	1	3	292	0.00	29.774 
02:25	69.4	69.4	69.4	69	58.8	1	3	292	0.00	29.774 
02:30	69.4	69.4	69.4	69	58.8	1	3	292	0.00	29.778 
02:35	69.3	69.3	69.3	70	59.1	0	1	292	0.00	29.778 
02:40	69.1	69.1	69.1	69	58.5	1	3	292	0.00	29.778 
02:45	69.1	69.1	69.1	69	58.5	1	3	292	0.00	29.777 
02:50	68.9	68.9	68.9	69	58.3	1	4	292	0.00	29.777 
02:55	68.8	68.8	68.8	69	58.2	1	4	292	0.00	29.777 
03:00	68.8	68.8	68.8	69	58.2	0	3	292	0.00	29.770 
03:05	68.6	68.6	68.6	69	58.0	1	3	292	0.00	29.770 
03:10	68.4	68.4	68.4	68	57.4	1	4	292	0.00	29.770 
03:15	68.4	68.4	68.4	68	57.4	1	3	292	0.00	29.761 
03:20	68.3	68.3	68.3	67	56.9	1	3	292	0.00	29.761 
03:25	68.1	68.1	68.1	66	56.3	1	4	292	0.00	29.761 
03:30	68.1	68.1	68.1	66	56.3	1	4	292	0.00	29.766 
03:35	67.9	67.9	67.9	66	56.1	1	4	292	0.00	29.766 
03:40	67.9	67.9	67.9	67	56.5	0	2	292	0.00	29.766 
03:45	67.8	67.8	67.8	68	56.8	0	2	292	0.00	29.780 
03:50	67.6	67.6	67.6	67	56.2	1	4	292	0.00	29.780 
03:55	67.3	67.3	67.3	67	56.0	1	3	292	0.00	29.780 
04:00	67.1	67.1	67.1	66	55.4	1	3	292	0.00	29.782 
04:05	66.9	66.9	66.9	66	55.2	1	3	292	0.00	29.782 
04:10	66.6	66.6	66.6	65	54.5	2	6	292	0.00	29.782 
04:15	66.4	66.4	66.4	65	54.3	2	4	315	0.00	29.779 
04:20	66.3	66.3	66.3	65	54.2	2	4	270	0.00	29.779 
04:25	66.0	66.0	66.0	65	53.9	2	4	270	0.00	29.779 
04:30	65.8	65.8	65.8	65	53.7	1	3	270	0.00	29.781 
04:35	65.6	65.6	65.6	66	53.9	1	4	270	0.00	29.781 
04:40	65.3	65.3	65.3	66	53.6	1	4	270	0.00	29.781 
04:45	65.2	65.2	65.2	66	53.5	1	3	292	0.00	29.783 
04:50	65.0	65.0	65.0	67	53.8	1	4	292	0.00	29.783 
04:55	64.7	64.7	64.7	67	53.5	1	5	292	0.00	29.783 
05:00	64.5	64.5	64.5	67	53.3	2	5	315	0.00	29.793 
05:05	64.5	64.5	64.5	67	53.3	1	4	292	0.00	29.793 
05:10	64.3	64.3	64.3	68	53.5	1	4	292	0.00	29.793 
05:15	64.2	64.2	64.2	68	53.4	2	4	292	0.00	29.794 
05:20	64.2	64.2	64.2	67	53.0	1	3	292	0.00	29.794 
05:25	64.0	64.0	64.0	67	52.8	1	4	292	0.00	29.794 
05:30	63.9	63.9	63.9	67	52.7	2	5	292	0.00	29.798 
05:35	63.9	63.9	63.9	67	52.7	2	4	292	0.00	29.798 
05:40	63.7	63.7	63.7	67	52.5	2	4	315	0.00	29.798 
05:45	63.7	63.7	63.7	66	52.1	2	5	292	0.00	29.807 
05:50	63.5	63.5	63.5	66	51.9	2	5	315	0.00	29.807 
05:55	63.4	63.4	63.4	67	52.2	2	4	315	0.00	29.807 
06:00	63.2	63.2	63.2	67	52.1	2	5	315	0.00	29.814 
06:05	63.1	63.1	63.1	68	52.4	2	5	315	0.00	29.814 
06:10	62.9	62.9	62.9	68	52.2	1	4	315	0.00	29.814 
06:15	62.6	62.6	62.6	68	51.9	2	5	315	0.00	29.823 
06:20	62.4	62.4	62.4	68	51.7	2	5	315	0.00	29.823 
06:25	62.3	62.3	62.3	68	51.6	1	4	315	0.00	29.823 
06:30	62.3	62.3	62.3	68	51.6	2	4	315	0.00	29.833 
06:35	62.1	62.1	62.1	67	51.0	1	3	315	0.00	29.833 
06:40	62.0	62.0	62.0	66	50.5	1	3	315	0.00	29.833 
06:45	61.8	61.8	61.8	66	50.3	1	3	315	0.00	29.834 
06:50	61.8	61.8	61.8	65	49.9	1	3	315	0.00	29.834 
06:55	61.6	61.6	61.6	65	49.7	1	3	315	0.00	29.834 
07:00	61.6	61.6	61.6	65	49.7	0	2	315	0.00	29.845 
07:05	61.5	61.5	61.5	64	49.2	1	4	315	0.00	29.845 
07:10	61.3	61.3	61.3	63	48.6	2	3	315	0.00	29.845 
07:15	61.3	61.3	61.3	61	47.7	1	3	315	0.00	29.847 
07:20	61.2	61.2	61.2	62	48.1	1	3	315	0.00	29.847 
07:25	61.2	61.2	61.2	62	48.1	1	3	315	0.00	29.847 
07:30	61.0	61.0	61.0	60	47.0	2	4	315	0.00	29.863 
07:35	60.9	60.9	60.9	60	46.9	1	5	315	0.00	29.863 
07:40	60.9	60.9	60.9	61	47.4	1	3	158	0.00	29.863 
07:45	60.9	60.9	60.9	62	47.8	1	4	270	0.00	29.865 
07:50	60.7	60.7	60.7	62	47.6	1	4	270	0.00	29.865 
07:55	60.5	60.5	60.5	62	47.4	1	4	292	0.00	29.865 
08:00	60.5	60.5	60.5	63	47.8	1	4	292	0.00	29.875 
08:05	60.4	60.4	60.4	63	47.7	1	3	292	0.00	29.875 
08:10	60.4	60.4	60.4	62	47.3	1	4	292	0.00	29.875 
08:15	60.4	60.4	60.4	62	47.3	2	4	338	0.00	29.878 
08:20	60.4	60.4	60.4	62	47.3	2	5	338	0.00	29.878 
08:25	60.4	60.4	60.4	64	48.2	1	3	270	0.00	29.878 
08:30	60.4	60.4	60.4	63	47.7	1	4	270	0.00	29.881 
08:35	60.2	60.2	60.2	63	47.6	2	5	315	0.00	29.881 
08:40	60.2	60.2	60.2	63	47.6	2	4	292	0.00	29.881 
08:45	60.1	60.1	60.1	63	47.5	2	5	270	0.00	29.883 
08:50	59.9	59.9	59.9	63	47.3	2	4	292	0.00	29.883 
08:55	59.9	59.9	59.9	63	47.3	2	5	0	0.00	29.883 
09:00	60.1	60.1	60.1	63	47.5	2	4	338	0.00	29.885 
09:05	60.5	60.5	60.5	63	47.8	1	5	338	0.00	29.885 
09:10	61.2	61.2	61.2	62	48.1	1	4	292	0.00	29.885 
09:15	61.6	61.6	61.6	60	47.6	2	4	292	0.00	29.886 
09:20	62.0	62.0	62.0	58	47.0	2	4	292	0.00	29.886 
09:25	62.4	62.4	62.4	60	48.3	1	4	292	0.00	29.886 
09:30	62.6	62.6	62.6	58	47.6	2	4	292	0.00	29.891 
09:35	62.7	62.7	62.7	58	47.7	3	6	292	0.00	29.891 
09:40	62.9	62.9	62.9	58	47.9	2	4	338	0.00	29.891 
09:45	63.4	63.4	63.4	59	48.8	1	4	338	0.00	29.893 
09:50	63.2	63.2	63.2	57	47.7	2	5	315	0.00	29.893 
09:55	63.1	63.1	63.1	58	48.1	2	4	315	0.00	29.893 
10:00	63.5	63.5	63.5	57	48.0	2	5	315	0.00	29.893 
10:05	63.9	63.9	63.9	55	47.4	2	4	315	0.00	29.893 
10:10	64.0	64.0	64.0	56	48.0	3	4	292	0.00	29.893 
10:15	64.2	64.2	64.2	55	47.7	2	5	270	0.00	29.894 
10:20	64.3	64.3	64.3	55	47.8	2	6	270	0.00	29.894 
10:25	64.5	64.5	64.5	54	47.5	2	5	270	0.00	29.894 
10:30	64.8	64.8	64.8	56	48.7	2	5	338	0.00	29.894 
10:35	64.7	64.7	64.7	53	47.2	3	6	338	0.00	29.894 
10:40	64.8	64.8	64.8	55	48.2	2	5	292	0.00	29.894 
10:45	65.2	65.2	65.2	55	48.6	2	7	292	0.00	29.894 
10:50	65.5	65.5	65.5	54	48.4	2	5	315	0.00	29.894 
10:55	65.5	65.5	65.5	54	48.4	2	6	315	0.00	29.894 
11:00	65.6	65.6	65.6	52	47.5	3	5	315	0.00	29.895 
11:05	65.6	65.6	65.6	52	47.5	3	6	292	0.00	29.895 
11:10	65.6	65.6	65.6	52	47.5	3	6	292	0.00	29.895 
11:15	65.8	65.8	65.8	53	48.2	2	5	315	0.00	29.896 
11:20	66.0	66.0	66.0	51	47.3	2	7	270	0.00	29.896 
11:25	65.8	65.8	65.8	53	48.2	2	5	292	0.00	29.896 
11:30	65.8	65.8	65.8	53	48.2	3	5	292	0.00	29.896 
11:35	65.8	65.8	65.8	53	48.2	3	6	315	0.00	29.896 
11:40	66.4	66.4	66.4	55	49.7	1	5	292	0.00	29.896 
11:45	66.8	66.8	66.8	52	48.6	3	6	270	0.00	29.894 
11:50	66.3	66.3	66.3	53	48.6	2	6	292	0.00	29.894 
11:55	66.3	66.3	66.3	53	48.6	2	5	292	0.00	29.894 
12:00	66.9	66.9	66.9	51	48.2	3	5	270	0.00	29.893 
12:05	66.9	66.9	66.9	51	48.2	2	7	315	0.00	29.893 
12:10	66.9	66.9	66.9	52	48.7	3	6	270	0.00	29.893 
12:15	66.8	66.8	66.8	50	47.6	3	9	338	0.00	29.895 
12:20	66.9	66.9	66.9	52	48.7	3	7	270	0.00	29.895 
12:25	67.4	67.4	67.4	52	49.2	2	6	292	0.00	29.895 
12:30	67.6	67.6	67.6	51	48.8	2	5	292	0.00	29.895 
12:35	67.4	67.4	67.4	50	48.1	3	7	338	0.00	29.895 
12:40	67.8	67.8	67.8	50	48.5	3	7	270	0.00	29.895 
12:45	67.4	67.4	67.4	49	47.6	2	5	270	0.00	29.895 
12:50	67.6	67.6	67.6	50	48.3	3	6	292	0.00	29.895 
12:55	67.9	67.9	67.9	51	49.1	2	5	292	0.00	29.895 
13:00	67.9	67.9	67.9	52	49.6	3	7	292	0.00	29.896 
13:05	68.1	68.1	68.1	51	49.3	2	5	292	0.00	29.896 
13:10	68.3	68.3	68.3	51	49.5	3	6	292	0.00	29.896 
13:15	68.4	68.4	68.4	52	50.1	3	6	270	0.00	29.898 
13:20	68.3	68.3	68.3	49	48.4	3	10	315	0.00	29.898 
13:25	68.4	68.4	68.4	52	50.1	2	5	292	0.00	29.898 
13:30	68.9	68.9	68.9	54	51.6	3	7	270	0.00	29.897 
13:35	69.1	69.1	69.1	50	49.7	3	9	292	0.00	29.897 
13:40	69.1	69.1	69.1	49	49.1	2	7	270	0.00	29.897 
13:45	69.1	69.1	69.1	48	48.6	3	8	270	0.00	29.903 
13:50	68.9	68.9	68.9	48	48.4	4	7	292	0.00	29.903 
13:55	68.8	68.8	68.8	49	48.8	4	12	338	0.00	29.903 
14:00	69.4	69.4	69.4	50	49.9	2	5	338	0.00	29.905 
14:05	69.6	69.6	69.6	48	49.0	3	7	270	0.00	29.905 
14:10	69.4	69.4	69.4	47	48.3	4	7	292	0.00	29.905 
14:15	69.4	69.4	69.4	49	49.4	3	5	315	0.00	29.900 
14:20	69.6	69.6	69.6	48	49.0	4	7	270	0.00	29.900 
14:25	69.4	69.4	69.4	48	48.8	3	7	270	0.00	29.900 
14:30	69.8	69.8	69.8	46	48.1	3	7	292	0.00	29.896 
14:35	69.9	69.9	69.9	45	47.6	4	9	270	0.00	29.896 
14:40	69.9	69.9	69.9	46	48.2	3	9	292	0.00	29.896 
14:45	69.8	69.8	69.8	45	47.5	4	9	292	0.00	29.895 
14:50	69.9	69.9	69.9	46	48.2	3	5	292	0.00	29.895 
14:55	70.3	70.3	70.3	46	48.5	4	9	292	0.00	29.895 
15:00	70.1	70.1	70.1	44	47.2	4	10	292	0.00	29.892 
15:05	69.8	69.8	69.8	44	46.9	3	9	270	0.00	29.892 
15:10	70.1	70.1	70.1	43	46.6	4	7	270	0.00	29.892 
15:15	70.3	70.3	70.3	43	46.7	3	6	315	0.00	29.890 
15:20	70.3	70.3	70.3	40	44.8	4	10	315	0.00	29.890 
15:25	70.6	70.6	70.6	43	47.0	3	7	315	0.00	29.890 
15:30	70.8	70.8	70.8	44	47.8	3	6	270	0.00	29.887 
15:35	71.1	71.1	71.1	43	47.5	3	7	315	0.00	29.887 
15:40	70.9	70.9	70.9	43	47.3	3	5	270	0.00	29.887 
15:45	70.9	70.9	70.9	42	46.6	4	11	270	0.00	29.889 
15:50	70.8	70.8	70.8	43	47.2	4	9	270	0.00	29.889 
15:55	70.6	70.6	70.6	43	47.0	4	7	270	0.00	29.889 
16:00	70.4	70.4	70.4	43	46.8	3	9	338	0.00	29.894 
16:05	70.3	70.3	70.3	43	46.7	4	7	315	0.00	29.894 
16:10	70.3	70.3	70.3	43	46.7	3	7	315	0.00	29.894 
16:15	70.3	70.3	70.3	45	47.9	4	8	292	0.00	29.899 
16:20	70.3	70.3	70.3	45	47.9	3	6	270	0.00	29.899 
16:25	70.1	70.1	70.1	45	47.8	4	7	315	0.00	29.899 
16:30	70.1	70.1	70.1	45	47.8	3	7	292	0.00	29.898 
16:35	70.4	70.4	70.4	46	48.6	3	6	315	0.00	29.898 
16:40	70.6	70.6	70.6	45	48.2	3	8	292	0.00	29.898 
16:45	70.4	70.4	70.4	46	48.6	3	10	338	0.00	29.899 
16:50	70.8	70.8	70.8	46	49.0	3	7	292	0.00	29.899 
16:55	70.8	70.8	70.8	45	48.4	3	7	315	0.00	29.899 
17:00	69.9	69.9	69.9	45	47.6	4	9	315	0.00	29.904 
17:05	69.6	69.6	69.6	45	47.3	3	7	292	0.00	29.904 
17:10	69.6	69.6	69.6	44	46.7	4	6	292	0.00	29.904 
17:15	69.4	69.4	69.4	43	45.9	5	11	292	0.00	29.913 
17:20	69.6	69.6	69.6	46	47.9	3	9	315	0.00	29.913 
17:25	69.9	69.9	69.9	44	47.0	3	7	292	0.00	29.913 
17:30	69.8	69.8	69.8	44	46.9	3	6	338	0.00	29.914 
17:35	69.9	69.9	69.9	46	48.2	2	4	315	0.00	29.914 
17:40	69.9	69.9	69.9	44	47.0	3	6	292	0.00	29.914 
17:45	69.8	69.8	69.8	45	47.5	3	6	292	0.00	29.912 
17:50	69.6	69.6	69.6	43	46.1	3	6	292	0.00	29.912 
17:55	69.4	69.4	69.4	44	46.5	3	7	315	0.00	29.912 
18:00	69.1	69.1	69.1	43	45.7	3	5	315	0.00	29.922 
18:05	68.4	68.4	68.4	43	45.0	4	7	338	0.00	29.922 
18:10	68.1	68.1	68.1	41	43.5	4	9	292	0.00	29.922 
18:15	68.1	68.1	68.1	43	44.7	3	7	270	0.00	29.931 
18:20	68.1	68.1	68.1	43	44.7	3	7	315	0.00	29.931 
18:25	67.9	67.9	67.9	45	45.8	2	5	292	0.00	29.931 
18:30	67.8	67.8	67.8	44	45.1	3	7	315	0.00	29.928 
18:35	67.3	67.3	67.3	39	41.5	4	7	292	0.00	29.928 
18:40	66.9	66.9	66.9	40	41.8	3	6	315	0.00	29.928 
18:45	66.6	66.6	66.6	41	42.2	3	8	292	0.00	29.936 
18:50	66.6	66.6	66.6	42	42.8	3	7	315	0.00	29.936 
18:55	66.3	66.3	66.3	43	43.1	4	10	338	0.00	29.936 
19:00	66.3	66.3	66.3	45	44.3	2	5	270	0.00	29.936 
19:05	66.3	66.3	66.3	43	43.1	3	10	292	0.00	29.936 
19:10	66.1	66.1	66.1	43	42.9	2	5	315	0.00	29.936 
19:15	66.0	66.0	66.0	44	43.5	3	6	315	0.00	29.950 
19:20	66.0	66.0	66.0	44	43.5	2	7	292	0.00	29.950 
19:25	65.8	65.8	65.8	44	43.3	2	6	292	0.00	29.950 
19:30	65.6	65.6	65.6	45	43.7	2	10	292	0.00	29.952 
19:35	65.6	65.6	65.6	43	42.5	2	7	315	0.00	29.952 
19:40	65.3	65.3	65.3	43	42.2	3	7	315	0.00	29.952 
19:45	65.3	65.3	65.3	42	41.6	2	5	315	0.00	29.957 
19:50	65.0	65.0	65.0	43	42.0	2	4	315	0.00	29.957 
19:55	64.8	64.8	64.8	42	41.2	2	5	315	0.00	29.957 
20:00	64.7	64.7	64.7	42	41.1	2	5	315	0.00	29.965 
20:05	64.5	64.5	64.5	43	41.5	2	5	270	0.00	29.965 
20:10	64.5	64.5	64.5	42	40.9	2	5	292	0.00	29.965 
20:15	64.5	64.5	64.5	44	42.1	1	5	292	0.00	29.970 
20:20	64.3	64.3	64.3	43	41.3	1	5	292	0.00	29.970 
20:25	64.2	64.2	64.2	41	40.0	2	6	292	0.00	29.970 
20:30	64.0	64.0	64.0	42	40.4	2	7	315	0.00	29.974 
20:35	63.7	63.7	63.7	41	39.6	2	5	292	0.00	29.974 
20:40	63.4	63.4	63.4	43	40.5	1	4	292	0.00	29.974 
20:45	63.2	63.2	63.2	43	40.3	1	3	292	0.00	29.984 
20:50	62.9	62.9	62.9	44	40.6	1	3	292	0.00	29.984 
20:55	62.4	62.4	62.4	42	39.0	2	5	292	0.00	29.984 
21:00	62.3	62.3	62.3	42	38.9	1	4	315	0.00	29.988 
21:05	62.1	62.1	62.1	43	39.3	1	4	315	0.00	29.988 
21:10	61.8	61.8	61.8	43	39.1	1	3	338	0.00	29.988 
21:15	61.6	61.6	61.6	43	38.9	1	5	315	0.00	29.988 
21:20	61.3	61.3	61.3	44	39.2	1	3	338	0.00	29.988 
21:25	61.3	61.3	61.3	44	39.2	1	4	292	0.00	29.988 
21:30	61.0	61.0	61.0	45	39.5	0	3	292	0.00	29.993 
21:35	60.5	60.5	60.5	46	39.6	0	1	292	0.00	29.993 
21:40	60.4	60.4	60.4	46	39.5	0	1	292	0.00	29.993 
21:45	60.2	60.2	60.2	46	39.3	0	1	292	0.00	30.002 
21:50	60.1	60.1	60.1	47	39.8	0	1	292	0.00	30.002 
21:55	59.8	59.8	59.8	48	40.1	0	0	---	0.00	30.002 
22:00	59.5	59.5	59.5	49	40.3	0	0	---	0.00	30.004 
22:05	59.2	59.2	59.2	50	40.6	0	0	---	0.00	30.004 
22:10	58.9	58.9	58.9	51	40.8	0	0	---	0.00	30.004 
22:15	58.6	58.6	58.6	52	41.0	0	0	---	0.00	30.016 
22:20	58.3	58.3	58.3	54	41.7	0	0	---	0.00	30.016 
22:25	57.8	57.8	57.8	55	41.7	0	0	---	0.00	30.016 
22:30	57.5	57.5	57.5	55	41.5	0	0	---	0.00	30.018 
22:35	57.0	57.0	57.0	56	41.5	0	0	---	0.00	30.018 
22:40	56.6	56.6	56.6	58	42.0	0	0	---	0.00	30.018 
22:45	56.2	56.2	56.2	58	41.6	0	0	---	0.00	30.023 
22:50	55.7	55.7	55.7	59	41.6	0	0	---	0.00	30.023 
22:55	55.3	55.3	55.3	60	41.7	0	0	---	0.00	30.023 
23:00	55.0	55.0	55.0	63	42.6	0	0	---	0.00	30.027 
23:05	54.7	54.7	54.7	63	42.4	0	0	---	0.00	30.027 
23:10	54.4	54.4	54.4	64	42.5	0	0	---	0.00	30.027 
23:15	53.9	53.9	53.9	65	42.4	0	0	---	0.00	30.035 
23:20	53.6	53.6	53.6	67	42.9	0	0	---	0.00	30.035 
23:25	53.3	53.3	53.3	67	42.6	0	0	---	0.00	30.035 
23:30	53.2	53.2	53.2	68	42.9	0	0	---	0.00	30.037 
23:35	52.9	52.9	52.9	69	43.0	0	0	---	0.00	30.037 
23:40	52.8	52.8	52.8	70	43.3	0	0	---	0.00	30.037 
23:45	52.5	52.5	52.5	70	43.0	0	0	---	0.00	30.039 
23:50	52.3	52.3	52.3	71	43.2	0	0	---	0.00	30.039 
23:55	52.2	52.2	52.2	71	43.1	0	0	---	0.00	30.039 

CoCoRaHS
IN-AL-39
A2 Web Hosting
Creative Commons License
GoDaddy
search engine by freefind advanced

loaded 2018-11-16 10:54:44 • last modified 2010-11-18 10:43:29
Privacy PolicyDisclaimer
• wx.awcolley.com is powered by PmWiki v.2002016 •
• all content (unless otherwise noted) © 2018 A W Colley